Airfield :
LOGIN :

Register | Disclaimer

   EN    FR    IT 

 










Legend :    VFR   Marginal VFR   IFR   Intensive IFR   Very Intensive IFR
Visi :
Ceiling :
>= 8 km
>= 3000ft
5 to 8 km
1000 to 3000 ft
1500m to 5 km
500 to 1000 ft
800 to 1500m
200 to 500 ft
< 800m
< 200 ft
Symbols :   Thunderstorms  Fog  Heavy snow  Heavy precipitations  Wind > 20 kt
SIGMETs :     Misc.  Thunderstorms  Icing  Turbulence  Mountain Waves  Volcanic Ashes







- Airport Elevation : 659 ft
- IATA code : LYN
- Download approach charts


LFLY - Lyon Bron

CURRENT METAR :
  • 171430Z AUTO 36011KT 340V040 CAVOK 29/07 Q1017 NOSIG

EXPIRED METARs :
  • 171400Z AUTO 01008KT 320V050 CAVOK 29/05 Q1017 NOSIG
  • 171330Z AUTO 35009KT 320V050 CAVOK 29/06 Q1017 NOSIG
  • 171300Z AUTO 01010KT CAVOK 28/08 Q1017 NOSIG
  • 171230Z AUTO 36008KT 320V040 CAVOK 29/09 Q1018 NOSIG
  • 171200Z AUTO 34008KT 300V020 CAVOK 28/08 Q1018 NOSIG

TAF TAF LFLY
Valid from the 17 at 12:00 until the 18 at 12:00 UTC


171100Z 1712/1812 35008KT CAVOK
ATIS : +33 4 72 15 87 96
No reported NOTAMs for that airfield.



MET'MAP, your aeronautical weather chart ! - Copyright ORBIFLY December 2007 - Disclaimer

ORBIFLY MET'MAP TEAM :

Programming & Development : Alexandra Zaïnal
Concept & Development : Baudouin d'Aumeries
Co-Development & Prog : Marc-Olivier Méhu
Technical & hardware support : Manuel Goepfert

Contact : metmap@orbifly.com




SOURCES & CREDITS :

   NOAA